createdAt,value
2019-05-17T00:01:37.777Z,18.01
2019-05-17T00:04:29.075Z,18.06
2019-05-17T00:07:19.280Z,18.09
2019-05-17T00:10:10.070Z,18.07
2019-05-17T00:13:00.331Z,18.02
2019-05-17T00:15:50.457Z,17.86
2019-05-17T00:18:40.777Z,17.82
2019-05-17T00:21:30.925Z,17.92
2019-05-17T00:24:21.360Z,18.00
2019-05-17T00:27:11.745Z,18.01
2019-05-17T00:30:01.962Z,18.08
2019-05-17T00:32:52.525Z,18.08
2019-05-17T00:35:42.589Z,18.03
2019-05-17T00:38:45.582Z,18.02
2019-05-17T00:41:26.897Z,18.02
2019-05-17T00:44:16.996Z,18.07
2019-05-17T00:47:07.236Z,18.07
2019-05-17T00:49:57.553Z,18.02
2019-05-17T00:52:47.752Z,17.82
2019-05-17T00:55:37.911Z,17.75
2019-05-17T00:58:28.274Z,17.73
2019-05-17T01:01:18.747Z,17.54
2019-05-17T01:04:08.773Z,17.54
2019-05-17T01:06:59.053Z,17.31
2019-05-17T01:09:49.667Z,17.27
2019-05-17T01:12:39.720Z,17.29
2019-05-17T01:15:30.025Z,17.13
2019-05-17T01:18:20.065Z,17.09
2019-05-17T01:21:10.319Z,17.21
2019-05-17T01:24:00.659Z,17.07
2019-05-17T01:26:51.274Z,17.07
2019-05-17T01:29:41.764Z,17.05
2019-05-17T01:32:31.992Z,17.15
2019-05-17T01:35:21.958Z,17.14
2019-05-17T01:38:12.150Z,17.07
2019-05-17T01:41:02.111Z,17.00
2019-05-17T01:43:53.057Z,17.03
2019-05-17T01:46:43.175Z,16.94
2019-05-17T01:49:33.568Z,16.97
2019-05-17T01:52:23.792Z,16.78
2019-05-17T01:55:14.029Z,16.63
2019-05-17T01:58:04.073Z,16.70
2019-05-17T02:00:54.367Z,16.70
2019-05-17T02:03:46.762Z,16.74
2019-05-17T02:06:36.796Z,16.73
2019-05-17T02:09:37.148Z,16.60
2019-05-17T02:12:19.198Z,16.58
2019-05-17T02:15:09.576Z,16.54
2019-05-17T02:17:59.794Z,16.56
2019-05-17T02:20:49.908Z,16.57
2019-05-17T02:23:39.873Z,16.56
2019-05-17T02:26:30.007Z,16.68
2019-05-17T02:29:21.445Z,16.80
2019-05-17T02:32:12.883Z,16.90
2019-05-17T02:35:03.611Z,16.69
2019-05-17T02:37:53.875Z,16.51
2019-05-17T02:40:43.814Z,16.47
2019-05-17T02:43:34.074Z,16.51
2019-05-17T02:46:24.054Z,16.48
2019-05-17T02:49:14.402Z,16.46
2019-05-17T02:52:04.672Z,16.49
2019-05-17T02:54:55.901Z,16.57
2019-05-17T02:57:46.215Z,16.59
2019-05-17T03:00:36.468Z,16.46
2019-05-17T03:03:26.653Z,16.46
2019-05-17T03:06:16.959Z,16.50
2019-05-17T03:09:07.622Z,16.25
2019-05-17T03:11:57.712Z,16.71
2019-05-17T03:14:48.102Z,16.68
2019-05-17T03:17:38.343Z,16.82
2019-05-17T03:20:28.671Z,16.76
2019-05-17T03:23:18.700Z,16.79
2019-05-17T03:26:12.774Z,16.95
2019-05-17T03:29:03.284Z,17.03
2019-05-17T03:31:59.786Z,17.22
2019-05-17T03:34:45.149Z,17.32
2019-05-17T03:37:37.884Z,17.34
2019-05-17T03:41:00.558Z,17.54
2019-05-17T03:43:22.430Z,17.72
2019-05-17T03:46:13.953Z,17.90
2019-05-17T03:49:04.131Z,18.14
2019-05-17T03:51:55.115Z,18.28
2019-05-17T03:54:45.598Z,18.37
2019-05-17T03:57:35.970Z,18.61
2019-05-17T04:00:25.894Z,18.88
2019-05-17T04:03:16.121Z,19.17
2019-05-17T04:06:06.429Z,19.54
2019-05-17T04:08:56.667Z,20.13
2019-05-17T04:11:46.677Z,20.97
2019-05-17T04:14:37.990Z,21.99
2019-05-17T04:17:28.373Z,23.04
2019-05-17T04:20:18.526Z,23.84
2019-05-17T04:23:08.931Z,24.89
2019-05-17T04:26:03.779Z,25.62
2019-05-17T04:28:53.320Z,26.26
2019-05-17T04:31:44.069Z,27.00
2019-05-17T04:34:34.220Z,27.12
2019-05-17T04:37:24.829Z,28.14
2019-05-17T04:40:15.675Z,28.90
2019-05-17T04:43:06.558Z,29.98
2019-05-17T04:45:57.156Z,30.50
2019-05-17T04:48:48.018Z,30.41
2019-05-17T04:51:38.875Z,30.97
2019-05-17T04:54:33.096Z,31.57
2019-05-17T04:57:23.118Z,32.69
2019-05-17T05:00:14.024Z,33.49
2019-05-17T05:03:04.722Z,34.16
2019-05-17T05:05:55.621Z,33.76
2019-05-17T05:08:46.437Z,33.13
2019-05-17T05:11:51.883Z,32.73
2019-05-17T05:14:29.336Z,32.31
2019-05-17T05:17:22.171Z,32.69
2019-05-17T05:20:13.722Z,33.63
2019-05-17T05:23:04.617Z,34.81
2019-05-17T05:25:56.611Z,36.20
2019-05-17T05:28:49.711Z,37.25
2019-05-17T05:31:42.602Z,38.23
2019-05-17T05:34:32.773Z,39.58
2019-05-17T05:37:23.654Z,39.58
2019-05-17T05:40:14.591Z,40.20
2019-05-17T05:43:05.426Z,40.89
2019-05-17T05:45:56.367Z,41.61
2019-05-17T05:48:47.381Z,41.99
2019-05-17T05:51:37.903Z,42.24
2019-05-17T05:54:28.200Z,42.98
2019-05-17T05:57:18.792Z,43.61
2019-05-17T06:00:12.716Z,44.32
2019-05-17T06:03:04.227Z,45.07
2019-05-17T06:05:54.935Z,45.33
2019-05-17T06:08:45.457Z,45.94
2019-05-17T06:11:35.981Z,46.58
2019-05-17T06:14:26.259Z,46.69
2019-05-17T06:17:16.731Z,47.26
2019-05-17T06:20:07.860Z,47.62
2019-05-17T06:22:58.432Z,47.43
2019-05-17T06:25:48.859Z,47.98
2019-05-17T06:28:39.293Z,48.27
2019-05-17T06:31:29.799Z,49.04
2019-05-17T06:34:22.322Z,49.11
2019-05-17T06:37:14.897Z,49.92
2019-05-17T06:40:05.156Z,49.08
2019-05-17T06:42:55.432Z,49.61
2019-05-17T06:45:45.658Z,49.51
2019-05-17T06:48:36.183Z,49.47
2019-05-17T06:51:26.761Z,49.92
2019-05-17T06:54:17.029Z,48.46
2019-05-17T06:57:07.481Z,48.35
2019-05-17T06:59:59.381Z,49.49
2019-05-17T07:02:50.134Z,49.64
2019-05-17T07:05:42.352Z,48.88
2019-05-17T07:08:32.674Z,48.85
2019-05-17T07:11:23.194Z,48.07
2019-05-17T07:14:13.925Z,46.88
2019-05-17T07:17:04.627Z,47.44
2019-05-17T07:19:55.309Z,47.20
2019-05-17T07:22:45.538Z,43.87
2019-05-17T07:25:36.208Z,41.90
2019-05-17T07:28:26.446Z,39.69
2019-05-17T07:31:19.377Z,37.96
2019-05-17T07:34:10.458Z,37.10
2019-05-17T07:37:01.262Z,35.94
2019-05-17T07:40:01.195Z,34.65
2019-05-17T07:42:44.623Z,34.25
2019-05-17T07:45:35.143Z,34.25
2019-05-17T07:48:26.091Z,34.04
2019-05-17T07:51:19.360Z,34.04
2019-05-17T07:54:10.475Z,33.57
2019-05-17T07:57:02.379Z,33.69
2019-05-17T07:59:53.247Z,34.30
2019-05-17T08:02:44.056Z,34.30
2019-05-17T08:05:34.752Z,34.47
2019-05-17T08:08:25.527Z,34.21
2019-05-17T08:11:16.484Z,33.58
2019-05-17T08:14:07.612Z,32.95
2019-05-17T08:16:59.899Z,33.02
2019-05-17T08:19:51.076Z,32.27
2019-05-17T08:22:42.027Z,31.71
2019-05-17T08:25:32.877Z,31.43
2019-05-17T08:28:23.695Z,31.02
2019-05-17T08:31:14.439Z,30.86
2019-05-17T08:34:05.236Z,30.70
2019-05-17T08:36:56.100Z,30.35
2019-05-17T08:39:46.701Z,30.24
2019-05-17T08:42:40.662Z,30.55
2019-05-17T08:45:31.030Z,30.35
2019-05-17T08:48:21.880Z,30.62
2019-05-17T08:51:12.497Z,31.46
2019-05-17T08:54:03.242Z,32.79
2019-05-17T08:56:54.139Z,34.51
2019-05-17T08:59:44.770Z,37.65
2019-05-17T09:02:35.701Z,39.19
2019-05-17T09:05:26.701Z,39.19
2019-05-17T09:08:17.513Z,40.14
2019-05-17T09:11:09.931Z,35.61
2019-05-17T09:14:02.107Z,35.61
2019-05-17T09:16:54.326Z,33.82
2019-05-17T09:19:45.429Z,31.82
2019-05-17T09:22:36.443Z,30.46
2019-05-17T09:25:30.094Z,29.99
2019-05-17T09:28:20.460Z,29.57
2019-05-17T09:31:11.927Z,29.37
2019-05-17T09:34:02.576Z,29.29
2019-05-17T09:36:53.522Z,29.19
2019-05-17T09:39:44.303Z,29.10
2019-05-17T09:42:35.161Z,29.03
2019-05-17T09:45:25.977Z,28.81
2019-05-17T09:48:19.487Z,28.96
2019-05-17T09:51:10.489Z,28.58
2019-05-17T09:54:01.420Z,28.44
2019-05-17T09:56:52.154Z,28.42
2019-05-17T09:59:43.116Z,28.28
2019-05-17T10:02:33.681Z,28.21
2019-05-17T10:05:24.553Z,28.01
2019-05-17T10:08:15.428Z,28.03
2019-05-17T10:11:09.656Z,27.92
2019-05-17T10:14:01.128Z,27.67
2019-05-17T10:16:50.573Z,27.82
2019-05-17T10:19:41.422Z,27.49
2019-05-17T10:22:34.075Z,27.56
2019-05-17T10:25:24.814Z,27.51
2019-05-17T10:28:15.695Z,27.36
2019-05-17T10:31:06.481Z,27.08
2019-05-17T10:33:58.898Z,26.93
2019-05-17T10:36:50.696Z,27.04
2019-05-17T10:39:41.887Z,26.97
2019-05-17T10:42:32.711Z,26.78
2019-05-17T10:45:23.802Z,26.59
2019-05-17T10:48:14.597Z,26.33
2019-05-17T10:51:05.395Z,26.19
2019-05-17T10:53:56.196Z,25.93
2019-05-17T10:56:46.923Z,25.88
2019-05-17T10:59:37.789Z,25.83
2019-05-17T11:02:30.466Z,25.81
2019-05-17T11:05:22.042Z,25.60
2019-05-17T11:08:12.607Z,25.56
2019-05-17T11:11:03.532Z,25.56
2019-05-17T11:13:54.475Z,25.51
2019-05-17T11:16:45.274Z,25.66
2019-05-17T11:19:35.981Z,25.52
2019-05-17T11:22:26.605Z,25.56
2019-05-17T11:25:17.609Z,25.54
2019-05-17T11:28:08.185Z,25.48
2019-05-17T11:30:59.239Z,25.47
2019-05-17T11:33:50.244Z,25.33
2019-05-17T11:36:40.995Z,25.37
2019-05-17T11:39:31.826Z,25.38
2019-05-17T11:42:22.666Z,25.53
2019-05-17T11:45:26.744Z,25.46
2019-05-17T11:48:05.913Z,25.29
2019-05-17T11:50:56.744Z,25.25
2019-05-17T11:53:47.567Z,25.34
2019-05-17T11:56:38.415Z,25.42
2019-05-17T11:59:29.233Z,25.29
2019-05-17T12:02:21.582Z,25.32
2019-05-17T12:05:12.378Z,25.26
2019-05-17T12:08:02.574Z,25.13
2019-05-17T12:10:53.321Z,24.90
2019-05-17T12:13:44.146Z,24.78
2019-05-17T12:16:35.121Z,24.77
2019-05-17T12:19:25.773Z,24.70
2019-05-17T12:22:17.666Z,24.86
2019-05-17T12:25:09.631Z,25.06
2019-05-17T12:28:00.641Z,25.25
2019-05-17T12:30:51.251Z,25.29
2019-05-17T12:33:42.078Z,25.41
2019-05-17T12:36:32.797Z,25.41
2019-05-17T12:39:27.430Z,25.48
2019-05-17T12:42:23.563Z,25.44
2019-05-17T12:45:19.796Z,25.52
2019-05-17T12:48:12.362Z,25.36
2019-05-17T12:51:05.485Z,25.30
2019-05-17T12:53:58.192Z,25.35
2019-05-17T12:56:52.323Z,25.40
2019-05-17T12:59:43.663Z,25.48
2019-05-17T13:02:37.213Z,25.49
2019-05-17T13:05:29.179Z,25.49
2019-05-17T13:08:20.222Z,25.47
2019-05-17T13:11:10.780Z,25.45
2019-05-17T13:14:01.743Z,25.49
2019-05-17T13:16:52.291Z,25.43
2019-05-17T13:19:43.185Z,25.41
2019-05-17T13:22:34.807Z,25.27
2019-05-17T13:25:24.799Z,25.24
2019-05-17T13:28:15.042Z,25.15
2019-05-17T13:31:05.642Z,25.12
2019-05-17T13:33:56.395Z,25.13
2019-05-17T13:36:47.053Z,25.15
2019-05-17T13:39:37.771Z,25.24
2019-05-17T13:42:28.427Z,25.21
2019-05-17T13:45:19.072Z,25.07
2019-05-17T13:48:09.933Z,25.02
2019-05-17T13:51:00.482Z,25.03
2019-05-17T13:53:51.296Z,25.09
2019-05-17T13:56:41.885Z,25.08
2019-05-17T13:59:32.156Z,25.08
2019-05-17T14:02:23.062Z,25.14
2019-05-17T14:05:13.163Z,25.16
2019-05-17T14:08:04.083Z,25.14
2019-05-17T14:10:54.308Z,25.11
2019-05-17T14:13:44.727Z,24.95
2019-05-17T14:16:35.806Z,24.44
2019-05-17T14:19:26.083Z,24.08
2019-05-17T14:22:16.297Z,23.88
2019-05-17T14:25:06.639Z,23.79
2019-05-17T14:27:57.786Z,23.63
2019-05-17T14:30:47.891Z,23.54
2019-05-17T14:33:38.227Z,23.60
2019-05-17T14:36:28.506Z,23.58
2019-05-17T14:39:18.965Z,23.51
2019-05-17T14:42:09.195Z,23.53
2019-05-17T14:44:59.436Z,23.48
2019-05-17T14:47:49.552Z,23.32
2019-05-17T14:50:39.881Z,23.36
2019-05-17T14:53:30.150Z,23.42
2019-05-17T14:56:20.126Z,23.48
2019-05-17T14:59:11.042Z,23.52
2019-05-17T15:02:01.336Z,23.73
2019-05-17T15:04:51.312Z,23.77
2019-05-17T15:07:41.715Z,23.85
2019-05-17T15:10:31.838Z,23.80
2019-05-17T15:13:22.293Z,23.89
2019-05-17T15:16:12.391Z,23.94
2019-05-17T15:19:02.451Z,23.82
2019-05-17T15:21:52.384Z,23.69
2019-05-17T15:24:43.694Z,23.60
2019-05-17T15:27:33.999Z,23.55
2019-05-17T15:30:24.066Z,23.59
2019-05-17T15:33:14.374Z,23.57
2019-05-17T15:36:04.600Z,23.65
2019-05-17T15:38:57.568Z,23.68
2019-05-17T15:41:49.024Z,23.75
2019-05-17T15:44:39.245Z,23.88
2019-05-17T15:47:29.520Z,23.89
2019-05-17T15:50:19.759Z,23.87
2019-05-17T15:53:10.262Z,23.84
2019-05-17T15:56:00.469Z,23.82
2019-05-17T15:58:50.843Z,23.76
2019-05-17T16:01:41.066Z,23.83
2019-05-17T16:04:31.343Z,23.91
2019-05-17T16:07:21.543Z,23.91
2019-05-17T16:10:13.448Z,23.99
2019-05-17T16:13:03.787Z,24.12
2019-05-17T16:15:54.965Z,24.12
2019-05-17T16:18:45.183Z,24.06
2019-05-17T16:21:35.502Z,23.94
2019-05-17T16:24:25.653Z,23.90
2019-05-17T16:27:15.900Z,23.76
2019-05-17T16:30:06.352Z,23.68
2019-05-17T16:32:56.673Z,23.65
2019-05-17T16:35:46.892Z,23.56
2019-05-17T16:38:37.189Z,23.45
2019-05-17T16:41:27.136Z,23.38
2019-05-17T16:44:17.334Z,23.12
2019-05-17T16:47:07.684Z,23.16
2019-05-17T16:49:57.962Z,23.10
2019-05-17T16:52:48.319Z,23.09
2019-05-17T16:55:39.809Z,23.18
2019-05-17T16:58:29.776Z,23.14
2019-05-17T17:01:20.090Z,23.02
2019-05-17T17:04:10.329Z,22.87
2019-05-17T17:07:00.588Z,22.96
2019-05-17T17:09:50.812Z,22.90
2019-05-17T17:12:42.130Z,22.58
2019-05-17T17:15:32.369Z,22.40
2019-05-17T17:18:22.654Z,22.21
2019-05-17T17:21:13.268Z,22.22
2019-05-17T17:24:03.740Z,22.05
2019-05-17T17:26:54.908Z,21.94
2019-05-17T17:29:45.252Z,22.02
2019-05-17T17:32:35.495Z,21.92
2019-05-17T17:35:25.546Z,21.76
2019-05-17T17:38:15.687Z,21.69
2019-05-17T17:41:05.971Z,21.44
2019-05-17T17:43:58.854Z,21.21
2019-05-17T17:46:47.753Z,20.94
2019-05-17T17:49:37.835Z,20.68
2019-05-17T17:52:28.360Z,20.68
2019-05-17T17:55:18.692Z,20.63
2019-05-17T17:58:09.075Z,20.63
2019-05-17T18:00:59.042Z,20.59
2019-05-17T18:03:49.267Z,20.42
2019-05-17T18:06:39.299Z,20.51
2019-05-17T18:09:29.598Z,20.27
2019-05-17T18:12:19.769Z,20.37
2019-05-17T18:15:10.056Z,20.38
2019-05-17T18:18:01.558Z,20.34
2019-05-17T18:20:52.543Z,20.35
2019-05-17T18:23:42.932Z,20.43
2019-05-17T18:26:33.872Z,20.54
2019-05-17T18:29:23.823Z,20.54
2019-05-17T18:32:14.113Z,20.60
2019-05-17T18:35:04.500Z,20.76
2019-05-17T18:37:54.731Z,20.80
2019-05-17T18:40:45.009Z,20.73
2019-05-17T18:43:35.346Z,20.80
2019-05-17T18:46:25.608Z,20.86
2019-05-17T18:49:15.970Z,20.87
2019-05-17T18:52:06.350Z,20.78
2019-05-17T18:54:56.765Z,20.58
2019-05-17T18:57:47.040Z,20.48
2019-05-17T19:00:38.482Z,20.59
2019-05-17T19:03:28.795Z,20.60
2019-05-17T19:06:19.091Z,20.57
2019-05-17T19:09:09.563Z,20.51
2019-05-17T19:11:59.590Z,20.52
2019-05-17T19:14:49.845Z,20.59
2019-05-17T19:17:40.213Z,20.44
2019-05-17T19:20:31.261Z,20.36
2019-05-17T19:23:21.689Z,20.54
2019-05-17T19:26:12.090Z,20.60
2019-05-17T19:29:02.562Z,20.73
2019-05-17T19:31:52.464Z,20.53
2019-05-17T19:34:42.670Z,20.51
2019-05-17T19:37:32.867Z,20.52
2019-05-17T19:40:23.083Z,20.51
2019-05-17T19:43:13.286Z,20.57
2019-05-17T19:46:03.527Z,20.65
2019-05-17T19:48:53.753Z,20.58
2019-05-17T19:51:44.273Z,20.60
2019-05-17T19:54:34.656Z,20.50
2019-05-17T19:57:24.965Z,20.51
2019-05-17T20:00:16.051Z,20.60
2019-05-17T20:03:06.081Z,20.62
2019-05-17T20:05:56.007Z,20.70
2019-05-17T20:08:46.239Z,20.53
2019-05-17T20:11:36.472Z,20.56
2019-05-17T20:14:26.710Z,20.64
2019-05-17T20:17:16.840Z,20.45
2019-05-17T20:20:07.399Z,20.57
2019-05-17T20:22:59.093Z,20.62
2019-05-17T20:25:49.254Z,20.63
2019-05-17T20:28:39.380Z,20.58
2019-05-17T20:31:29.653Z,20.55
2019-05-17T20:34:19.846Z,20.64
2019-05-17T20:37:10.155Z,20.53
2019-05-17T20:40:00.045Z,20.47
2019-05-17T20:42:50.316Z,20.45
2019-05-17T20:45:40.599Z,20.28
2019-05-17T20:48:31.075Z,20.54
2019-05-17T20:51:21.435Z,20.56
2019-05-17T20:54:11.506Z,20.32
2019-05-17T20:57:01.399Z,20.26
2019-05-17T20:59:51.652Z,20.20
2019-05-17T21:02:41.647Z,20.34
2019-05-17T21:05:31.919Z,20.37
2019-05-17T21:08:21.949Z,20.27
2019-05-17T21:11:12.031Z,20.33
2019-05-17T21:14:02.258Z,20.40
2019-05-17T21:16:52.694Z,20.34
2019-05-17T21:19:43.022Z,20.26
2019-05-17T21:22:33.353Z,20.21
2019-05-17T21:25:23.655Z,20.27
2019-05-17T21:28:13.953Z,20.32
2019-05-17T21:31:04.188Z,20.24
2019-05-17T21:33:55.390Z,20.31
2019-05-17T21:36:45.633Z,20.29
2019-05-17T21:39:35.686Z,20.19
2019-05-17T21:42:25.888Z,20.13
2019-05-17T21:45:17.276Z,20.23
2019-05-17T21:48:07.649Z,20.29
2019-05-17T21:50:58.037Z,20.24
2019-05-17T21:53:48.273Z,20.31
2019-05-17T21:56:38.540Z,20.24
2019-05-17T21:59:28.436Z,20.20
2019-05-17T22:02:18.756Z,20.20
2019-05-17T22:05:08.943Z,20.24
2019-05-17T22:07:59.292Z,20.24
2019-05-17T22:10:49.653Z,20.21
2019-05-17T22:13:39.817Z,20.18
2019-05-17T22:16:30.202Z,20.33
2019-05-17T22:19:20.465Z,20.20
2019-05-17T22:22:10.635Z,20.35
2019-05-17T22:25:00.645Z,20.26
2019-05-17T22:27:50.923Z,20.30
2019-05-17T22:30:41.292Z,20.21
2019-05-17T22:33:31.504Z,19.99
2019-05-17T22:36:21.897Z,20.11
2019-05-17T22:39:12.199Z,20.09
2019-05-17T22:42:02.609Z,20.19
2019-05-17T22:44:53.016Z,20.02
2019-05-17T22:47:43.211Z,20.10
2019-05-17T22:50:33.020Z,20.11
2019-05-17T22:53:23.301Z,19.96
2019-05-17T22:56:13.607Z,19.98
2019-05-17T22:59:03.710Z,19.98
2019-05-17T23:01:53.944Z,19.81
2019-05-17T23:04:44.259Z,19.76
2019-05-17T23:07:34.322Z,19.79
2019-05-17T23:10:24.785Z,19.81
2019-05-17T23:13:15.172Z,19.70
2019-05-17T23:16:07.308Z,19.71
2019-05-17T23:19:10.169Z,19.76
2019-05-17T23:22:00.477Z,19.84
2019-05-17T23:24:50.651Z,19.81
2019-05-17T23:27:40.925Z,19.73
2019-05-17T23:30:31.153Z,19.83
2019-05-17T23:33:21.508Z,19.86
2019-05-17T23:36:11.772Z,19.86
2019-05-17T23:39:02.282Z,19.82
2019-05-17T23:41:53.455Z,19.74
2019-05-17T23:44:43.671Z,19.82
2019-05-17T23:47:33.572Z,19.87
2019-05-17T23:50:23.862Z,19.78
2019-05-17T23:53:14.114Z,19.83
2019-05-17T23:56:04.272Z,19.85
2019-05-17T23:58:54.520Z,19.83
